sensor_id;sensor_type;location;lat;lon;timestamp;pressure;altitude;pressure_sealevel;temperature;humidity
1832;BME280;1680;48.106;11.708;2023-05-03T00:02:09;96191.94;;;7.20;100.00
1832;BME280;1680;48.106;11.708;2023-05-03T00:04:36;96191.81;;;7.07;100.00
1832;BME280;1680;48.106;11.708;2023-05-03T00:07:04;96186.25;;;7.10;100.00
1832;BME280;1680;48.106;11.708;2023-05-03T00:09:33;96187.84;;;7.11;100.00
1832;BME280;1680;48.106;11.708;2023-05-03T00:12:00;96180.59;;;7.07;100.00
1832;BME280;1680;48.106;11.708;2023-05-03T00:14:28;96190.75;;;7.02;100.00
1832;BME280;1680;48.106;11.708;2023-05-03T00:16:56;96192.72;;;7.00;100.00
1832;BME280;1680;48.106;11.708;2023-05-03T00:19:23;96192.00;;;7.06;100.00
1832;BME280;1680;48.106;11.708;2023-05-03T00:21:54;96194.19;;;7.02;100.00
1832;BME280;1680;48.106;11.708;2023-05-03T00:24:21;96190.13;;;7.00;100.00
1832;BME280;1680;48.106;11.708;2023-05-03T00:26:48;96195.69;;;6.97;100.00
1832;BME280;1680;48.106;11.708;2023-05-03T00:29:16;96181.50;;;6.99;100.00
1832;BME280;1680;48.106;11.708;2023-05-03T00:31:45;96190.19;;;7.06;100.00
1832;BME280;1680;48.106;11.708;2023-05-03T00:34:13;96183.84;;;6.94;100.00
1832;BME280;1680;48.106;11.708;2023-05-03T00:36:41;96189.75;;;7.03;100.00
1832;BME280;1680;48.106;11.708;2023-05-03T00:39:08;96186.97;;;7.04;100.00
1832;BME280;1680;48.106;11.708;2023-05-03T00:41:38;96183.59;;;6.89;100.00
1832;BME280;1680;48.106;11.708;2023-05-03T00:44:05;96144.13;;;6.57;100.00
1832;BME280;1680;48.106;11.708;2023-05-03T00:46:33;96182.44;;;6.77;100.00
1832;BME280;1680;48.106;11.708;2023-05-03T00:49:00;96185.06;;;6.77;100.00
1832;BME280;1680;48.106;11.708;2023-05-03T00:51:29;96181.38;;;6.72;100.00
1832;BME280;1680;48.106;11.708;2023-05-03T00:53:57;96182.13;;;6.66;100.00
1832;BME280;1680;48.106;11.708;2023-05-03T00:56:25;96181.66;;;6.77;100.00
1832;BME280;1680;48.106;11.708;2023-05-03T00:58:52;96177.63;;;6.60;100.00
1832;BME280;1680;48.106;11.708;2023-05-03T01:01:20;96171.53;;;6.53;100.00
1832;BME280;1680;48.106;11.708;2023-05-03T01:03:47;96187.47;;;6.44;100.00
1832;BME280;1680;48.106;11.708;2023-05-03T01:06:21;96177.28;;;6.63;100.00
1832;BME280;1680;48.106;11.708;2023-05-03T01:09:01;96153.06;;;6.48;100.00
1832;BME280;1680;48.106;11.708;2023-05-03T01:11:35;96178.50;;;6.67;100.00
1832;BME280;1680;48.106;11.708;2023-05-03T01:14:09;96181.66;;;6.63;100.00
1832;BME280;1680;48.106;11.708;2023-05-03T01:16:46;96166.94;;;6.55;100.00
1832;BME280;1680;48.106;11.708;2023-05-03T01:19:27;96180.97;;;6.69;100.00
1832;BME280;1680;48.106;11.708;2023-05-03T01:22:00;96179.19;;;6.90;100.00
1832;BME280;1680;48.106;11.708;2023-05-03T01:24:31;96181.59;;;6.91;100.00
1832;BME280;1680;48.106;11.708;2023-05-03T01:27:01;96184.56;;;7.03;100.00
1832;BME280;1680;48.106;11.708;2023-05-03T01:29:29;96153.63;;;7.00;100.00
1832;BME280;1680;48.106;11.708;2023-05-03T01:31:59;96177.13;;;7.21;100.00
1832;BME280;1680;48.106;11.708;2023-05-03T01:34:32;96179.22;;;7.32;100.00
1832;BME280;1680;48.106;11.708;2023-05-03T01:37:03;96177.34;;;7.47;100.00
1832;BME280;1680;48.106;11.708;2023-05-03T01:39:46;96166.97;;;7.53;100.00
1832;BME280;1680;48.106;11.708;2023-05-03T01:42:16;96155.81;;;7.38;100.00
1832;BME280;1680;48.106;11.708;2023-05-03T01:44:44;96172.63;;;7.57;100.00
1832;BME280;1680;48.106;11.708;2023-05-03T01:47:12;96178.72;;;7.64;100.00
1832;BME280;1680;48.106;11.708;2023-05-03T01:49:40;96070.94;;;6.94;100.00
1832;BME280;1680;48.106;11.708;2023-05-03T01:52:07;96174.75;;;7.68;100.00
1832;BME280;1680;48.106;11.708;2023-05-03T01:54:34;96179.97;;;7.68;100.00
1832;BME280;1680;48.106;11.708;2023-05-03T01:57:01;96176.41;;;7.75;100.00
1832;BME280;1680;48.106;11.708;2023-05-03T01:59:30;96169.75;;;7.72;100.00
1832;BME280;1680;48.106;11.708;2023-05-03T02:01:57;96173.84;;;7.81;100.00
1832;BME280;1680;48.106;11.708;2023-05-03T02:04:24;96175.38;;;7.69;100.00
1832;BME280;1680;48.106;11.708;2023-05-03T02:06:51;96170.59;;;7.79;100.00
1832;BME280;1680;48.106;11.708;2023-05-03T02:09:18;96171.22;;;7.81;100.00
1832;BME280;1680;48.106;11.708;2023-05-03T02:11:45;96183.28;;;7.82;100.00
1832;BME280;1680;48.106;11.708;2023-05-03T02:14:13;96184.03;;;7.76;100.00
1832;BME280;1680;48.106;11.708;2023-05-03T02:16:41;96177.66;;;7.79;100.00
1832;BME280;1680;48.106;11.708;2023-05-03T02:19:09;96179.06;;;7.81;100.00
1832;BME280;1680;48.106;11.708;2023-05-03T02:21:36;96180.72;;;7.89;100.00
1832;BME280;1680;48.106;11.708;2023-05-03T02:24:04;96186.94;;;7.88;100.00
1832;BME280;1680;48.106;11.708;2023-05-03T02:26:32;96188.16;;;7.85;100.00
1832;BME280;1680;48.106;11.708;2023-05-03T02:28:59;96181.78;;;7.94;100.00
1832;BME280;1680;48.106;11.708;2023-05-03T02:31:26;96189.84;;;7.99;100.00
1832;BME280;1680;48.106;11.708;2023-05-03T02:33:55;96182.97;;;7.92;100.00
1832;BME280;1680;48.106;11.708;2023-05-03T02:36:22;96200.25;;;7.93;100.00
1832;BME280;1680;48.106;11.708;2023-05-03T02:38:49;96189.44;;;8.02;100.00
1832;BME280;1680;48.106;11.708;2023-05-03T02:41:16;96185.38;;;7.93;100.00
1832;BME280;1680;48.106;11.708;2023-05-03T02:43:43;96181.03;;;8.00;100.00
1832;BME280;1680;48.106;11.708;2023-05-03T02:46:10;96183.13;;;7.90;100.00
1832;BME280;1680;48.106;11.708;2023-05-03T02:48:37;96174.69;;;7.88;100.00
1832;BME280;1680;48.106;11.708;2023-05-03T02:51:06;96176.72;;;7.86;100.00
1832;BME280;1680;48.106;11.708;2023-05-03T02:53:33;96159.50;;;7.71;100.00
1832;BME280;1680;48.106;11.708;2023-05-03T02:56:00;96178.69;;;7.84;100.00
1832;BME280;1680;48.106;11.708;2023-05-03T02:58:28;96172.53;;;7.92;100.00
1832;BME280;1680;48.106;11.708;2023-05-03T03:00:55;96175.50;;;7.89;100.00
1832;BME280;1680;48.106;11.708;2023-05-03T03:03:22;96180.91;;;7.87;100.00
1832;BME280;1680;48.106;11.708;2023-05-03T03:05:49;96178.16;;;7.95;100.00
1832;BME280;1680;48.106;11.708;2023-05-03T03:08:18;96172.56;;;7.98;100.00
1832;BME280;1680;48.106;11.708;2023-05-03T03:10:45;96183.81;;;7.99;100.00
1832;BME280;1680;48.106;11.708;2023-05-03T03:13:12;96183.00;;;7.98;100.00
1832;BME280;1680;48.106;11.708;2023-05-03T03:15:40;96187.03;;;8.01;100.00
1832;BME280;1680;48.106;11.708;2023-05-03T03:18:07;96189.84;;;7.99;100.00
1832;BME280;1680;48.106;11.708;2023-05-03T03:20:34;96183.75;;;7.92;100.00
1832;BME280;1680;48.106;11.708;2023-05-03T03:23:01;96185.00;;;7.96;100.00
1832;BME280;1680;48.106;11.708;2023-05-03T03:25:30;96179.56;;;7.98;100.00
1832;BME280;1680;48.106;11.708;2023-05-03T03:27:57;96195.91;;;8.06;100.00
1832;BME280;1680;48.106;11.708;2023-05-03T03:30:25;96189.84;;;7.99;100.00
1832;BME280;1680;48.106;11.708;2023-05-03T03:32:52;96187.47;;;8.04;100.00
1832;BME280;1680;48.106;11.708;2023-05-03T03:35:19;96187.63;;;7.96;100.00
1832;BME280;1680;48.106;11.708;2023-05-03T03:37:47;96185.47;;;8.06;100.00
1832;BME280;1680;48.106;11.708;2023-05-03T03:40:14;96182.63;;;8.01;100.00
1832;BME280;1680;48.106;11.708;2023-05-03T03:42:43;96181.03;;;8.00;100.00
1832;BME280;1680;48.106;11.708;2023-05-03T03:45:10;96183.09;;;8.11;100.00
1832;BME280;1680;48.106;11.708;2023-05-03T03:47:37;96186.31;;;8.13;100.00
1832;BME280;1680;48.106;11.708;2023-05-03T03:50:05;96187.69;;;8.09;100.00
1832;BME280;1680;48.106;11.708;2023-05-03T03:52:32;96188.75;;;8.15;100.00
1832;BME280;1680;48.106;11.708;2023-05-03T03:55:00;96192.41;;;8.20;100.00
1832;BME280;1680;48.106;11.708;2023-05-03T03:57:27;96195.28;;;8.25;100.00
1832;BME280;1680;48.106;11.708;2023-05-03T03:59:56;96189.09;;;8.33;100.00
1832;BME280;1680;48.106;11.708;2023-05-03T04:02:24;96173.97;;;8.22;100.00
1832;BME280;1680;48.106;11.708;2023-05-03T04:04:51;96193.31;;;8.34;100.00
1832;BME280;1680;48.106;11.708;2023-05-03T04:07:18;96199.34;;;8.34;100.00
1832;BME280;1680;48.106;11.708;2023-05-03T04:09:46;96197.13;;;8.31;100.00
1832;BME280;1680;48.106;11.708;2023-05-03T04:12:13;96202.94;;;8.33;100.00
1832;BME280;1680;48.106;11.708;2023-05-03T04:14:40;96199.75;;;8.31;100.00
1832;BME280;1680;48.106;11.708;2023-05-03T04:17:08;96185.63;;;8.26;100.00
1832;BME280;1680;48.106;11.708;2023-05-03T04:19:35;96202.75;;;8.28;100.00
1832;BME280;1680;48.106;11.708;2023-05-03T04:22:03;96199.75;;;8.31;100.00
1832;BME280;1680;48.106;11.708;2023-05-03T04:24:30;96202.53;;;8.30;100.00
1832;BME280;1680;48.106;11.708;2023-05-03T04:26:57;96204.97;;;8.31;100.00
1832;BME280;1680;48.106;11.708;2023-05-03T04:29:26;96200.16;;;8.35;100.00
1832;BME280;1680;48.106;11.708;2023-05-03T04:31:54;96202.78;;;8.35;100.00
1832;BME280;1680;48.106;11.708;2023-05-03T04:34:22;96203.78;;;8.34;100.00
1832;BME280;1680;48.106;11.708;2023-05-03T04:36:50;96204.56;;;8.34;100.00
1832;BME280;1680;48.106;11.708;2023-05-03T04:39:17;96203.56;;;8.35;100.00
1832;BME280;1680;48.106;11.708;2023-05-03T04:41:44;96206.19;;;8.35;100.00
1832;BME280;1680;48.106;11.708;2023-05-03T04:44:11;96213.53;;;8.53;100.00
1832;BME280;1680;48.106;11.708;2023-05-03T04:46:41;96209.09;;;8.53;100.00
1832;BME280;1680;48.106;11.708;2023-05-03T04:49:09;96213.78;;;8.64;100.00
1832;BME280;1680;48.106;11.708;2023-05-03T04:51:38;96208.38;;;8.66;100.00
1832;BME280;1680;48.106;11.708;2023-05-03T04:54:05;96220.09;;;8.76;100.00
1832;BME280;1680;48.106;11.708;2023-05-03T04:56:32;96213.25;;;8.75;100.00
1832;BME280;1680;48.106;11.708;2023-05-03T04:59:00;96217.91;;;8.86;100.00
1832;BME280;1680;48.106;11.708;2023-05-03T05:01:29;96222.94;;;8.87;100.00
1832;BME280;1680;48.106;11.708;2023-05-03T05:03:59;96219.53;;;8.87;100.00
1832;BME280;1680;48.106;11.708;2023-05-03T05:06:28;96227.41;;;8.93;100.00
1832;BME280;1680;48.106;11.708;2023-05-03T05:08:57;96227.03;;;8.96;100.00
1832;BME280;1680;48.106;11.708;2023-05-03T05:11:24;96222.00;;;9.08;100.00
1832;BME280;1680;48.106;11.708;2023-05-03T05:13:51;96225.09;;;9.24;100.00
1832;BME280;1680;48.106;11.708;2023-05-03T05:16:19;96228.75;;;9.30;100.00
1832;BME280;1680;48.106;11.708;2023-05-03T05:18:46;96224.13;;;9.32;100.00
1832;BME280;1680;48.106;11.708;2023-05-03T05:21:13;96240.63;;;9.39;100.00
1832;BME280;1680;48.106;11.708;2023-05-03T05:23:40;96236.47;;;9.57;100.00
1832;BME280;1680;48.106;11.708;2023-05-03T05:26:09;96235.25;;;9.60;100.00
1832;BME280;1680;48.106;11.708;2023-05-03T05:28:36;96244.91;;;9.59;100.00
1832;BME280;1680;48.106;11.708;2023-05-03T05:31:03;96217.91;;;9.52;100.00
1832;BME280;1680;48.106;11.708;2023-05-03T05:33:30;96238.28;;;9.69;100.00
1832;BME280;1680;48.106;11.708;2023-05-03T05:35:58;96239.91;;;9.70;100.00
1832;BME280;1680;48.106;11.708;2023-05-03T05:38:25;96243.97;;;9.79;100.00
1832;BME280;1680;48.106;11.708;2023-05-03T05:40:53;96240.53;;;9.92;100.00
1832;BME280;1680;48.106;11.708;2023-05-03T05:43:21;96237.75;;;10.19;100.00
1832;BME280;1680;48.106;11.708;2023-05-03T05:45:49;96249.84;;;10.27;100.00
1832;BME280;1680;48.106;11.708;2023-05-03T05:48:16;96249.03;;;10.39;100.00
1832;BME280;1680;48.106;11.708;2023-05-03T05:50:43;96245.56;;;10.58;100.00
1832;BME280;1680;48.106;11.708;2023-05-03T05:53:10;96244.13;;;10.62;100.00
1832;BME280;1680;48.106;11.708;2023-05-03T05:55:38;96245.78;;;10.57;100.00
1832;BME280;1680;48.106;11.708;2023-05-03T05:58:05;96247.59;;;10.56;100.00
1832;BME280;1680;48.106;11.708;2023-05-03T06:00:34;96253.84;;;10.62;100.00
1832;BME280;1680;48.106;11.708;2023-05-03T06:03:01;96251.03;;;10.50;100.00
1832;BME280;1680;48.106;11.708;2023-05-03T06:05:28;96250.81;;;10.45;100.00
1832;BME280;1680;48.106;11.708;2023-05-03T06:07:55;96253.66;;;10.37;100.00
1832;BME280;1680;48.106;11.708;2023-05-03T06:10:23;96249.44;;;10.30;100.00
1832;BME280;1680;48.106;11.708;2023-05-03T06:12:50;96252.25;;;10.22;100.00
1832;BME280;1680;48.106;11.708;2023-05-03T06:15:17;96258.72;;;10.19;100.00
1832;BME280;1680;48.106;11.708;2023-05-03T06:17:46;96252.84;;;10.24;100.00
1832;BME280;1680;48.106;11.708;2023-05-03T06:20:13;96261.13;;;10.34;100.00
1832;BME280;1680;48.106;11.708;2023-05-03T06:22:40;96259.72;;;10.31;100.00
1832;BME280;1680;48.106;11.708;2023-05-03T06:25:08;96269.81;;;10.34;100.00
1832;BME280;1680;48.106;11.708;2023-05-03T06:27:38;96272.41;;;10.34;100.00
1832;BME280;1680;48.106;11.708;2023-05-03T06:30:08;96267.56;;;10.51;100.00
1832;BME280;1680;48.106;11.708;2023-05-03T06:32:37;96271.59;;;10.66;100.00
1832;BME280;1680;48.106;11.708;2023-05-03T06:35:07;96272.38;;;10.60;100.00
1832;BME280;1680;48.106;11.708;2023-05-03T06:37:35;96268.00;;;10.41;100.00
1832;BME280;1680;48.106;11.708;2023-05-03T06:40:06;96276.03;;;10.46;100.00
1832;BME280;1680;48.106;11.708;2023-05-03T06:42:36;96280.28;;;10.47;100.00
1832;BME280;1680;48.106;11.708;2023-05-03T06:45:04;96272.41;;;10.47;100.00
1832;BME280;1680;48.106;11.708;2023-05-03T06:47:32;96278.03;;;10.57;100.00
1832;BME280;1680;48.106;11.708;2023-05-03T06:50:01;96278.81;;;10.77;100.00
1832;BME280;1680;48.106;11.708;2023-05-03T06:52:29;96282.41;;;10.89;100.00
1832;BME280;1680;48.106;11.708;2023-05-03T06:54:57;96277.59;;;10.86;100.00
1832;BME280;1680;48.106;11.708;2023-05-03T06:57:24;96281.94;;;11.11;100.00
1832;BME280;1680;48.106;11.708;2023-05-03T06:59:51;96277.94;;;11.02;100.00
1832;BME280;1680;48.106;11.708;2023-05-03T07:02:18;96273.94;;;11.00;100.00
1832;BME280;1680;48.106;11.708;2023-05-03T07:04:45;96280.59;;;10.96;100.00
1832;BME280;1680;48.106;11.708;2023-05-03T07:07:12;96269.91;;;10.84;100.00
1832;BME280;1680;48.106;11.708;2023-05-03T07:09:42;96286.06;;;10.88;100.00
1832;BME280;1680;48.106;11.708;2023-05-03T07:12:09;96280.03;;;10.74;100.00
1832;BME280;1680;48.106;11.708;2023-05-03T07:14:37;96284.09;;;10.64;100.00
1832;BME280;1680;48.106;11.708;2023-05-03T07:17:04;96277.22;;;10.63;100.00
1832;BME280;1680;48.106;11.708;2023-05-03T07:19:31;96280.88;;;10.49;100.00
1832;BME280;1680;48.106;11.708;2023-05-03T07:21:59;96275.22;;;10.52;100.00
1832;BME280;1680;48.106;11.708;2023-05-03T07:24:27;96277.63;;;10.66;100.00
1832;BME280;1680;48.106;11.708;2023-05-03T07:26:56;96226.00;;;10.54;100.00
1832;BME280;1680;48.106;11.708;2023-05-03T07:29:23;96277.97;;;10.96;100.00
1832;BME280;1680;48.106;11.708;2023-05-03T07:31:51;96282.91;;;11.30;100.00
1832;BME280;1680;48.106;11.708;2023-05-03T07:34:21;96280.44;;;11.35;100.00
1832;BME280;1680;48.106;11.708;2023-05-03T07:36:48;96276.06;;;11.72;100.00
1832;BME280;1680;48.106;11.708;2023-05-03T07:39:16;96275.19;;;11.78;100.00
1832;BME280;1680;48.106;11.708;2023-05-03T07:41:43;96273.31;;;11.92;100.00
1832;BME280;1680;48.106;11.708;2023-05-03T07:44:12;96272.84;;;12.01;100.00
1832;BME280;1680;48.106;11.708;2023-05-03T07:46:39;96276.88;;;12.28;100.00
1832;BME280;1680;48.106;11.708;2023-05-03T07:49:06;96279.84;;;12.07;100.00
1832;BME280;1680;48.106;11.708;2023-05-03T07:51:34;96284.78;;;12.28;100.00
1832;BME280;1680;48.106;11.708;2023-05-03T07:54:01;96270.66;;;12.23;100.00
1832;BME280;1680;48.106;11.708;2023-05-03T07:56:29;96272.63;;;12.27;100.00
1832;BME280;1680;48.106;11.708;2023-05-03T07:58:57;96283.31;;;12.32;100.00
1832;BME280;1680;48.106;11.708;2023-05-03T08:01:27;96274.84;;;12.30;100.00
1832;BME280;1680;48.106;11.708;2023-05-03T08:03:54;96274.38;;;12.40;100.00
1832;BME280;1680;48.106;11.708;2023-05-03T08:06:23;96273.28;;;12.47;100.00
1832;BME280;1680;48.106;11.708;2023-05-03T08:08:52;96265.53;;;12.52;100.00
1832;BME280;1680;48.106;11.708;2023-05-03T08:11:19;96269.22;;;12.69;100.00
1832;BME280;1680;48.106;11.708;2023-05-03T08:13:48;96274.47;;;12.93;100.00
1832;BME280;1680;48.106;11.708;2023-05-03T08:16:15;96271.09;;;12.86;100.00
1832;BME280;1680;48.106;11.708;2023-05-03T08:18:45;96276.56;;;12.85;100.00
1832;BME280;1680;48.106;11.708;2023-05-03T08:21:13;96262.97;;;12.88;100.00
1832;BME280;1680;48.106;11.708;2023-05-03T08:23:41;96271.06;;;12.93;100.00
1832;BME280;1680;48.106;11.708;2023-05-03T08:26:08;96273.25;;;13.14;100.00
1832;BME280;1680;48.106;11.708;2023-05-03T08:28:38;96272.88;;;13.28;100.00
1832;BME280;1680;48.106;11.708;2023-05-03T08:31:05;96277.47;;;13.33;100.00
1832;BME280;1680;48.106;11.708;2023-05-03T08:33:32;96268.19;;;13.30;100.00
1832;BME280;1680;48.106;11.708;2023-05-03T08:36:01;96223.00;;;12.97;100.00
1832;BME280;1680;48.106;11.708;2023-05-03T08:38:28;96280.28;;;13.20;100.00
1832;BME280;1680;48.106;11.708;2023-05-03T08:41:03;96270.00;;;13.30;100.00
1832;BME280;1680;48.106;11.708;2023-05-03T08:43:39;96278.56;;;13.43;100.00
1832;BME280;1680;48.106;11.708;2023-05-03T08:46:10;96267.63;;;13.57;100.00
1832;BME280;1680;48.106;11.708;2023-05-03T08:48:37;96266.78;;;13.46;100.00
1832;BME280;1680;48.106;11.708;2023-05-03T08:51:12;96270.53;;;13.85;100.00
1832;BME280;1680;48.106;11.708;2023-05-03T08:53:40;96268.22;;;13.59;100.00
1832;BME280;1680;48.106;11.708;2023-05-03T08:56:08;96268.09;;;13.84;100.00
1832;BME280;1680;48.106;11.708;2023-05-03T08:58:37;96257.06;;;13.75;100.00
1832;BME280;1680;48.106;11.708;2023-05-03T09:01:05;96271.13;;;13.99;100.00
1832;BME280;1680;48.106;11.708;2023-05-03T09:03:33;96259.50;;;13.88;100.00
1832;BME280;1680;48.106;11.708;2023-05-03T09:06:01;96265.97;;;13.74;100.00
1832;BME280;1680;48.106;11.708;2023-05-03T09:08:30;96261.00;;;13.84;100.00
1832;BME280;1680;48.106;11.708;2023-05-03T09:10:59;96255.25;;;13.87;100.00
1832;BME280;1680;48.106;11.708;2023-05-03T09:13:29;96265.81;;;13.87;100.00
1832;BME280;1680;48.106;11.708;2023-05-03T09:15:57;96262.06;;;14.06;100.00
1832;BME280;1680;48.106;11.708;2023-05-03T09:18:24;96270.66;;;14.20;100.00
1832;BME280;1680;48.106;11.708;2023-05-03T09:20:52;96260.34;;;14.41;100.00
1832;BME280;1680;48.106;11.708;2023-05-03T09:23:28;96267.81;;;14.44;100.00
1832;BME280;1680;48.106;11.708;2023-05-03T09:25:58;96264.59;;;14.76;100.00
1832;BME280;1680;48.106;11.708;2023-05-03T09:28:25;96258.88;;;14.68;96.89
1832;BME280;1680;48.106;11.708;2023-05-03T09:31:03;96260.00;;;14.95;96.31
1832;BME280;1680;48.106;11.708;2023-05-03T09:33:32;96273.78;;;14.97;97.53
1832;BME280;1680;48.106;11.708;2023-05-03T09:36:01;96264.44;;;15.06;97.29
1832;BME280;1680;48.106;11.708;2023-05-03T09:38:29;96244.19;;;14.72;98.13
1832;BME280;1680;48.106;11.708;2023-05-03T09:40:58;96274.69;;;15.14;98.29
1832;BME280;1680;48.106;11.708;2023-05-03T09:43:26;96265.97;;;15.02;95.73
1832;BME280;1680;48.106;11.708;2023-05-03T09:46:06;96266.44;;;14.99;96.72
1832;BME280;1680;48.106;11.708;2023-05-03T09:48:34;96252.25;;;15.16;98.00
1832;BME280;1680;48.106;11.708;2023-05-03T09:51:02;96251.75;;;15.53;94.49
1832;BME280;1680;48.106;11.708;2023-05-03T09:53:32;96249.31;;;15.63;92.82
1832;BME280;1680;48.106;11.708;2023-05-03T09:56:02;96223.50;;;15.43;96.45
1832;BME280;1680;48.106;11.708;2023-05-03T09:58:31;96242.59;;;15.72;92.90
1832;BME280;1680;48.106;11.708;2023-05-03T10:00:59;96239.19;;;15.88;93.02
1832;BME280;1680;48.106;11.708;2023-05-03T10:03:31;96228.75;;;15.54;95.40
1832;BME280;1680;48.106;11.708;2023-05-03T10:06:02;96231.72;;;15.85;94.93
1832;BME280;1680;48.106;11.708;2023-05-03T10:08:33;96239.13;;;16.16;93.50
1832;BME280;1680;48.106;11.708;2023-05-03T10:11:03;96240.97;;;15.99;92.29
1832;BME280;1680;48.106;11.708;2023-05-03T10:13:31;96232.72;;;15.96;94.12
1832;BME280;1680;48.106;11.708;2023-05-03T10:16:02;96243.22;;;16.07;94.17
1832;BME280;1680;48.106;11.708;2023-05-03T10:18:32;96227.09;;;15.92;92.46
1832;BME280;1680;48.106;11.708;2023-05-03T10:21:05;96228.69;;;15.93;90.04
1832;BME280;1680;48.106;11.708;2023-05-03T10:23:35;96225.78;;;15.78;93.12
1832;BME280;1680;48.106;11.708;2023-05-03T10:26:14;96227.88;;;15.93;92.08
1832;BME280;1680;48.106;11.708;2023-05-03T10:28:41;96225.63;;;15.85;92.09
1832;BME280;1680;48.106;11.708;2023-05-03T10:31:43;96235.06;;;15.64;92.22
1832;BME280;1680;48.106;11.708;2023-05-03T10:34:29;96230.16;;;15.45;93.09
1832;BME280;1680;48.106;11.708;2023-05-03T10:37:00;96228.66;;;15.49;93.37
1832;BME280;1680;48.106;11.708;2023-05-03T10:39:29;96229.84;;;15.42;97.08
1832;BME280;1680;48.106;11.708;2023-05-03T10:42:00;96234.47;;;15.35;93.28
1832;BME280;1680;48.106;11.708;2023-05-03T10:44:34;96231.84;;;15.12;96.10
1832;BME280;1680;48.106;11.708;2023-05-03T10:47:11;96198.97;;;15.19;95.20
1832;BME280;1680;48.106;11.708;2023-05-03T10:49:39;96237.47;;;15.27;95.76
1832;BME280;1680;48.106;11.708;2023-05-03T10:55:17;96225.97;;;15.33;96.82
1832;BME280;1680;48.106;11.708;2023-05-03T10:57:47;96222.09;;;15.12;97.29
1832;BME280;1680;48.106;11.708;2023-05-03T11:00:18;96224.94;;;15.61;98.26
1832;BME280;1680;48.106;11.708;2023-05-03T11:03:03;96207.00;;;15.63;95.28
1832;BME280;1680;48.106;11.708;2023-05-03T11:05:34;96196.03;;;15.71;94.38
1832;BME280;1680;48.106;11.708;2023-05-03T11:08:09;96226.94;;;15.99;94.39
1832;BME280;1680;48.106;11.708;2023-05-03T11:10:37;96220.53;;;16.11;92.22
1832;BME280;1680;48.106;11.708;2023-05-03T11:13:06;96215.44;;;16.38;92.41
1832;BME280;1680;48.106;11.708;2023-05-03T11:15:33;96210.78;;;16.45;88.42
1832;BME280;1680;48.106;11.708;2023-05-03T11:18:01;96206.28;;;16.45;87.93
1832;BME280;1680;48.106;11.708;2023-05-03T11:20:28;96211.00;;;16.43;89.04
1832;BME280;1680;48.106;11.708;2023-05-03T11:22:56;96211.66;;;16.50;90.61
1832;BME280;1680;48.106;11.708;2023-05-03T11:25:23;96205.63;;;16.54;90.59
1832;BME280;1680;48.106;11.708;2023-05-03T11:27:51;96195.56;;;16.35;89.27
1832;BME280;1680;48.106;11.708;2023-05-03T11:30:22;96203.97;;;16.86;91.06
1832;BME280;1680;48.106;11.708;2023-05-03T11:32:52;96191.00;;;17.06;85.10
1832;BME280;1680;48.106;11.708;2023-05-03T11:35:19;96191.88;;;17.12;83.38
1832;BME280;1680;48.106;11.708;2023-05-03T11:37:48;96184.63;;;16.86;83.94
1832;BME280;1680;48.106;11.708;2023-05-03T11:40:16;96190.16;;;16.84;82.16
1832;BME280;1680;48.106;11.708;2023-05-03T11:42:55;96183.34;;;17.10;83.84
1832;BME280;1680;48.106;11.708;2023-05-03T11:45:25;96166.16;;;17.12;80.29
1832;BME280;1680;48.106;11.708;2023-05-03T11:47:54;96187.94;;;17.36;81.23
1832;BME280;1680;48.106;11.708;2023-05-03T11:50:42;96186.59;;;17.33;77.37
1832;BME280;1680;48.106;11.708;2023-05-03T11:53:10;96191.38;;;17.15;80.69
1832;BME280;1680;48.106;11.708;2023-05-03T11:55:38;96183.06;;;17.06;80.36
1832;BME280;1680;48.106;11.708;2023-05-03T11:58:07;96193.84;;;17.43;78.43
1832;BME280;1680;48.106;11.708;2023-05-03T12:00:36;96183.34;;;17.52;75.38
1832;BME280;1680;48.106;11.708;2023-05-03T12:03:05;96184.84;;;17.44;76.41
1832;BME280;1680;48.106;11.708;2023-05-03T12:05:33;96179.66;;;17.53;76.97
1832;BME280;1680;48.106;11.708;2023-05-03T12:08:00;96187.66;;;17.85;76.44
1832;BME280;1680;48.106;11.708;2023-05-03T12:10:31;96177.22;;;18.05;76.20
1832;BME280;1680;48.106;11.708;2023-05-03T12:12:58;96179.03;;;17.99;77.47
1832;BME280;1680;48.106;11.708;2023-05-03T12:15:30;96179.19;;;17.61;74.76
1832;BME280;1680;48.106;11.708;2023-05-03T12:18:01;96179.09;;;17.52;78.81
1832;BME280;1680;48.106;11.708;2023-05-03T12:20:29;96181.03;;;17.35;79.39
1832;BME280;1680;48.106;11.708;2023-05-03T12:22:58;96173.16;;;17.23;80.75
1832;BME280;1680;48.106;11.708;2023-05-03T12:25:26;96170.69;;;16.95;79.76
1832;BME280;1680;48.106;11.708;2023-05-03T12:27:58;96180.38;;;16.85;81.39
1832;BME280;1680;48.106;11.708;2023-05-03T12:30:27;96172.06;;;16.76;78.31
1832;BME280;1680;48.106;11.708;2023-05-03T12:32:54;96171.38;;;16.86;78.31
1832;BME280;1680;48.106;11.708;2023-05-03T12:35:24;96168.97;;;17.06;78.61
1832;BME280;1680;48.106;11.708;2023-05-03T12:37:51;96170.72;;;17.38;75.92
1832;BME280;1680;48.106;11.708;2023-05-03T12:40:18;96165.06;;;17.82;73.93
1832;BME280;1680;48.106;11.708;2023-05-03T12:42:48;96160.06;;;17.86;72.43
1832;BME280;1680;48.106;11.708;2023-05-03T12:45:15;96165.56;;;17.74;72.38
1832;BME280;1680;48.106;11.708;2023-05-03T12:47:43;96160.63;;;17.61;72.72
1832;BME280;1680;48.106;11.708;2023-05-03T12:50:10;96151.53;;;17.52;71.43
1832;BME280;1680;48.106;11.708;2023-05-03T12:52:39;96150.16;;;17.76;70.46
1832;BME280;1680;48.106;11.708;2023-05-03T12:55:06;96143.72;;;17.99;71.51
1832;BME280;1680;48.106;11.708;2023-05-03T12:57:34;96149.06;;;18.30;72.05
1832;BME280;1680;48.106;11.708;2023-05-03T13:00:02;96155.50;;;18.08;69.42
1832;BME280;1680;48.106;11.708;2023-05-03T13:02:29;96144.91;;;17.81;68.80
1832;BME280;1680;48.106;11.708;2023-05-03T13:04:57;96125.44;;;17.23;72.74
1832;BME280;1680;48.106;11.708;2023-05-03T13:07:26;96152.69;;;17.19;72.58
1832;BME280;1680;48.106;11.708;2023-05-03T13:09:55;96143.69;;;17.20;72.82
1832;BME280;1680;48.106;11.708;2023-05-03T13:12:23;96135.13;;;17.60;72.66
1832;BME280;1680;48.106;11.708;2023-05-03T13:14:51;96098.75;;;17.56;72.14
1832;BME280;1680;48.106;11.708;2023-05-03T13:17:20;96123.97;;;18.21;68.68
1832;BME280;1680;48.106;11.708;2023-05-03T13:19:48;96124.84;;;18.68;68.36